DA11 weather

Public forecast

Using degrees Celsius for public forecast. Weather courtesy of forecast.io.

Closest aviation weather report (METAR) to Hamaguir Airport

Closest report is Béchar Boudghene Ben Ali Lotfi Airport, 61.6 nm (114.1 km) NE. Retrieved 2020/08/11 12:00 UTC (1 hour ago):

DAOR 111200Z 18009KT CAVOK 36/04 Q1017

Closest aviation forecast (TAF) to Hamaguir Airport

Forecast is more than 12 hours old.

Closest forecast is Béchar Boudghene Ben Ali Lotfi Airport, 61.6 nm (114.1 km) NE. Retrieved 2017/11/09 18:03 UTC (3 years ago):

TAF DAOR 091700Z 0918/1009 35010KT 6000 FEW033 SCT100 TEMPO 0918/0924 3000 BLSA PROB40 TEMPO 0918/0924 35020G35KT 2000 -TSRA FEW030CB